sensor_id;sensor_type;location;lat;lon;timestamp;pressure;altitude;pressure_sealevel;temperature;humidity
11643;BME280;5877;50.930;6.918;2024-01-25T00:05:10;102156.63;;;10.91;72.33
11643;BME280;5877;50.930;6.918;2024-01-25T00:14:53;102197.31;;;10.95;73.91
11643;BME280;5877;50.930;6.918;2024-01-25T00:24:36;102172.16;;;11.01;73.43
11643;BME280;5877;50.930;6.918;2024-01-25T00:34:21;102041.72;;;10.02;74.84
11643;BME280;5877;50.930;6.918;2024-01-25T00:44:04;102188.97;;;10.92;74.08
11643;BME280;5877;50.930;6.918;2024-01-25T00:53:46;102194.72;;;11.33;72.07
11643;BME280;5877;50.930;6.918;2024-01-25T01:03:31;102182.94;;;11.29;71.40
11643;BME280;5877;50.930;6.918;2024-01-25T01:13:15;102182.94;;;10.60;74.48
11643;BME280;5877;50.930;6.918;2024-01-25T01:22:57;102046.78;;;9.17;76.90
11643;BME280;5877;50.930;6.918;2024-01-25T01:32:39;102211.34;;;10.18;78.27
11643;BME280;5877;50.930;6.918;2024-01-25T01:42:22;102207.28;;;10.07;79.04
11643;BME280;5877;50.930;6.918;2024-01-25T01:52:06;102224.56;;;9.85;81.06
11643;BME280;5877;50.930;6.918;2024-01-25T02:01:48;102156.16;;;9.23;82.24
11643;BME280;5877;50.930;6.918;2024-01-25T02:11:31;102147.97;;;9.10;83.29
11643;BME280;5877;50.930;6.918;2024-01-25T02:21:14;102251.28;;;9.56;83.18
11643;BME280;5877;50.930;6.918;2024-01-25T02:30:56;102168.41;;;8.82;86.03
11643;BME280;5877;50.930;6.918;2024-01-25T02:40:41;102271.94;;;9.43;87.51
11643;BME280;5877;50.930;6.918;2024-01-25T02:50:25;102289.44;;;9.26;88.72
11643;BME280;5877;50.930;6.918;2024-01-25T03:00:07;102206.22;;;8.96;89.34
11643;BME280;5877;50.930;6.918;2024-01-25T03:09:51;102277.31;;;9.33;88.93
11643;BME280;5877;50.930;6.918;2024-01-25T03:19:33;102196.88;;;8.77;89.49
11643;BME280;5877;50.930;6.918;2024-01-25T03:29:16;102261.41;;;9.02;91.65
11643;BME280;5877;50.930;6.918;2024-01-25T03:38:58;102160.22;;;8.27;94.90
11643;BME280;5877;50.930;6.918;2024-01-25T03:48:41;102267.25;;;8.88;94.68
11643;BME280;5877;50.930;6.918;2024-01-25T03:58:24;102276.22;;;8.77;97.48
11643;BME280;5877;50.930;6.918;2024-01-25T04:08:06;102282.75;;;8.73;98.66
11643;BME280;5877;50.930;6.918;2024-01-25T04:17:50;102236.53;;;8.48;97.21
11643;BME280;5877;50.930;6.918;2024-01-25T04:27:33;102310.50;;;8.58;99.55
11643;BME280;5877;50.930;6.918;2024-01-25T04:37:15;102300.94;;;8.41;100.00
11643;BME280;5877;50.930;6.918;2024-01-25T04:46:57;102292.41;;;8.39;100.00
11643;BME280;5877;50.930;6.918;2024-01-25T04:56:39;102271.00;;;8.18;100.00
11643;BME280;5877;50.930;6.918;2024-01-25T05:06:22;102235.16;;;7.76;100.00
11643;BME280;5877;50.930;6.918;2024-01-25T05:16:04;102312.28;;;8.06;100.00
11643;BME280;5877;50.930;6.918;2024-01-25T05:25:50;102218.13;;;7.28;100.00
11643;BME280;5877;50.930;6.918;2024-01-25T05:35:32;102308.03;;;7.79;100.00
11643;BME280;5877;50.930;6.918;2024-01-25T05:45:16;102279.91;;;7.81;100.00
11643;BME280;5877;50.930;6.918;2024-01-25T05:55:01;102268.69;;;7.63;100.00
11643;BME280;5877;50.930;6.918;2024-01-25T06:04:46;102293.03;;;7.63;100.00
11643;BME280;5877;50.930;6.918;2024-01-25T06:14:28;102315.44;;;7.30;100.00
11643;BME280;5877;50.930;6.918;2024-01-25T06:24:11;102278.91;;;7.03;100.00
11643;BME280;5877;50.930;6.918;2024-01-25T06:33:53;102328.91;;;7.08;100.00
11643;BME280;5877;50.930;6.918;2024-01-25T06:43:36;102349.50;;;7.11;100.00
11643;BME280;5877;50.930;6.918;2024-01-25T06:53:19;102288.28;;;6.78;100.00
11643;BME280;5877;50.930;6.918;2024-01-25T07:03:02;102377.75;;;6.98;100.00
11643;BME280;5877;50.930;6.918;2024-01-25T07:12:45;102346.50;;;6.78;100.00
11643;BME280;5877;50.930;6.918;2024-01-25T07:22:28;102318.66;;;6.97;100.00
11643;BME280;5877;50.930;6.918;2024-01-25T07:32:10;102382.38;;;7.31;100.00
11643;BME280;5877;50.930;6.918;2024-01-25T07:41:52;102365.25;;;7.19;100.00
11643;BME280;5877;50.930;6.918;2024-01-25T07:51:36;102365.66;;;7.24;100.00
11643;BME280;5877;50.930;6.918;2024-01-25T08:01:18;102386.66;;;7.68;100.00
11643;BME280;5877;50.930;6.918;2024-01-25T08:11:05;102296.34;;;8.43;100.00
11643;BME280;5877;50.930;6.918;2024-01-25T08:20:47;102390.94;;;10.39;94.38
11643;BME280;5877;50.930;6.918;2024-01-25T08:30:30;102400.97;;;11.53;78.88
11643;BME280;5877;50.930;6.918;2024-01-25T08:40:12;102353.53;;;11.47;71.91
11643;BME280;5877;50.930;6.918;2024-01-25T08:49:55;102394.56;;;11.56;71.61
11643;BME280;5877;50.930;6.918;2024-01-25T08:59:37;102395.59;;;11.78;69.24
11643;BME280;5877;50.930;6.918;2024-01-25T09:09:24;102392.28;;;12.36;66.62
11643;BME280;5877;50.930;6.918;2024-01-25T09:19:06;102381.06;;;12.72;65.04
11643;BME280;5877;50.930;6.918;2024-01-25T09:28:49;102406.31;;;12.51;65.18
11643;BME280;5877;50.930;6.918;2024-01-25T09:38:31;102414.31;;;12.58;64.49
11643;BME280;5877;50.930;6.918;2024-01-25T09:48:14;102420.84;;;12.62;63.99
11643;BME280;5877;50.930;6.918;2024-01-25T09:57:57;102421.72;;;12.40;63.61
11643;BME280;5877;50.930;6.918;2024-01-25T10:07:42;102437.03;;;12.74;63.24
11643;BME280;5877;50.930;6.918;2024-01-25T10:17:25;102441.84;;;12.85;62.86
11643;BME280;5877;50.930;6.918;2024-01-25T10:27:28;102424.97;;;13.45;60.39
11643;BME280;5877;50.930;6.918;2024-01-25T10:37:13;102406.75;;;13.50;60.09
11643;BME280;5877;50.930;6.918;2024-01-25T10:46:58;102394.69;;;13.62;59.41
11643;BME280;5877;50.930;6.918;2024-01-25T10:56:43;102396.47;;;13.76;59.27
11643;BME280;5877;50.930;6.918;2024-01-25T11:06:27;102388.91;;;13.94;59.42
11643;BME280;5877;50.930;6.918;2024-01-25T11:16:18;102359.56;;;13.40;59.37
11643;BME280;5877;50.930;6.918;2024-01-25T11:26:00;102353.84;;;13.79;57.99
11643;BME280;5877;50.930;6.918;2024-01-25T11:35:42;102350.91;;;14.17;55.77
11643;BME280;5877;50.930;6.918;2024-01-25T11:45:25;102330.47;;;14.60;55.01
11643;BME280;5877;50.930;6.918;2024-01-25T11:55:09;102325.63;;;14.64;53.53
11643;BME280;5877;50.930;6.918;2024-01-25T12:04:52;102264.00;;;14.63;52.14
11643;BME280;5877;50.930;6.918;2024-01-25T12:14:37;102238.19;;;14.58;52.02
11643;BME280;5877;50.930;6.918;2024-01-25T12:24:21;102305.00;;;14.93;51.37
11643;BME280;5877;50.930;6.918;2024-01-25T12:34:27;102248.03;;;14.84;51.78
11643;BME280;5877;50.930;6.918;2024-01-25T12:44:25;102269.63;;;15.01;50.67
11643;BME280;5877;50.930;6.918;2024-01-25T12:54:12;102261.09;;;15.19;49.53
11643;BME280;5877;50.930;6.918;2024-01-25T13:04:11;102245.84;;;15.54;49.07
11643;BME280;5877;50.930;6.918;2024-01-25T13:14:03;102210.25;;;15.23;49.13
11643;BME280;5877;50.930;6.918;2024-01-25T13:23:47;102213.91;;;15.29;49.89
11643;BME280;5877;50.930;6.918;2024-01-25T13:33:29;102214.31;;;15.26;49.81
11643;BME280;5877;50.930;6.918;2024-01-25T13:43:13;102176.53;;;14.45;50.81
11643;BME280;5877;50.930;6.918;2024-01-25T13:52:54;102149.19;;;14.79;49.13
11643;BME280;5877;50.930;6.918;2024-01-25T14:02:39;102143.06;;;14.58;49.78
11643;BME280;5877;50.930;6.918;2024-01-25T14:12:23;102141.63;;;14.63;50.04
11643;BME280;5877;50.930;6.918;2024-01-25T14:22:07;102121.63;;;14.40;49.83
11643;BME280;5877;50.930;6.918;2024-01-25T14:32:09;102064.03;;;13.96;49.93
11643;BME280;5877;50.930;6.918;2024-01-25T14:41:53;102116.25;;;14.07;50.58
11643;BME280;5877;50.930;6.918;2024-01-25T14:51:35;102115.28;;;14.21;50.23
11643;BME280;5877;50.930;6.918;2024-01-25T15:01:19;102094.38;;;13.72;51.18
11643;BME280;5877;50.930;6.918;2024-01-25T15:11:05;101997.66;;;13.10;52.27
11643;BME280;5877;50.930;6.918;2024-01-25T15:20:48;102040.66;;;13.45;51.60
11643;BME280;5877;50.930;6.918;2024-01-25T15:30:30;102009.97;;;12.96;51.93
11643;BME280;5877;50.930;6.918;2024-01-25T15:40:14;102048.81;;;13.50;51.97
11643;BME280;5877;50.930;6.918;2024-01-25T15:50:01;102090.63;;;13.19;53.39
11643;BME280;5877;50.930;6.918;2024-01-25T15:59:44;102082.41;;;12.58;55.14
11643;BME280;5877;50.930;6.918;2024-01-25T16:09:29;102085.19;;;12.14;56.26
11643;BME280;5877;50.930;6.918;2024-01-25T16:19:12;102051.88;;;12.21;55.99
11643;BME280;5877;50.930;6.918;2024-01-25T16:28:55;102078.69;;;12.31;56.08
11643;BME280;5877;50.930;6.918;2024-01-25T16:38:37;101882.16;;;11.02;56.61
11643;BME280;5877;50.930;6.918;2024-01-25T16:48:20;101961.78;;;11.83;57.66
11643;BME280;5877;50.930;6.918;2024-01-25T16:58:04;102048.66;;;12.25;60.18
11643;BME280;5877;50.930;6.918;2024-01-25T17:07:46;102052.56;;;11.93;62.09
11643;BME280;5877;50.930;6.918;2024-01-25T17:17:29;101977.09;;;11.28;63.80
11643;BME280;5877;50.930;6.918;2024-01-25T17:27:11;102028.97;;;12.00;64.19
11643;BME280;5877;50.930;6.918;2024-01-25T17:36:55;102041.78;;;12.46;64.08
11643;BME280;5877;50.930;6.918;2024-01-25T17:46:38;102004.72;;;12.05;66.58
11643;BME280;5877;50.930;6.918;2024-01-25T17:56:20;102013.63;;;12.03;68.77
11643;BME280;5877;50.930;6.918;2024-01-25T18:06:03;102046.56;;;11.99;77.41
11643;BME280;5877;50.930;6.918;2024-01-25T18:15:47;102053.94;;;11.60;91.06
11643;BME280;5877;50.930;6.918;2024-01-25T18:25:29;102047.06;;;11.59;98.33
11643;BME280;5877;50.930;6.918;2024-01-25T18:35:12;101979.19;;;11.18;100.00
11643;BME280;5877;50.930;6.918;2024-01-25T18:44:55;101954.38;;;11.06;100.00
11643;BME280;5877;50.930;6.918;2024-01-25T18:54:38;101915.22;;;10.96;100.00
11643;BME280;5877;50.930;6.918;2024-01-25T19:04:21;102037.19;;;11.46;100.00
11643;BME280;5877;50.930;6.918;2024-01-25T19:14:03;101941.13;;;10.70;100.00
11643;BME280;5877;50.930;6.918;2024-01-25T19:23:46;101998.41;;;11.19;100.00
11643;BME280;5877;50.930;6.918;2024-01-25T19:33:28;102018.59;;;11.33;100.00
11643;BME280;5877;50.930;6.918;2024-01-25T19:43:11;101985.06;;;11.05;100.00
11643;BME280;5877;50.930;6.918;2024-01-25T19:52:54;101982.91;;;11.24;100.00
11643;BME280;5877;50.930;6.918;2024-01-25T20:02:38;101939.69;;;10.97;100.00
11643;BME280;5877;50.930;6.918;2024-01-25T20:12:20;101960.06;;;11.24;100.00
11643;BME280;5877;50.930;6.918;2024-01-25T20:22:03;101941.88;;;11.08;100.00
11643;BME280;5877;50.930;6.918;2024-01-25T20:31:50;101958.53;;;11.00;100.00
11643;BME280;5877;50.930;6.918;2024-01-25T20:41:32;101956.00;;;11.07;100.00
11643;BME280;5877;50.930;6.918;2024-01-25T20:51:14;101955.91;;;11.15;100.00
11643;BME280;5877;50.930;6.918;2024-01-25T21:00:56;101894.31;;;10.59;100.00
11643;BME280;5877;50.930;6.918;2024-01-25T21:10:41;101957.72;;;11.00;100.00
11643;BME280;5877;50.930;6.918;2024-01-25T21:20:23;101916.94;;;10.74;100.00
11643;BME280;5877;50.930;6.918;2024-01-25T21:30:06;101932.53;;;10.91;100.00
11643;BME280;5877;50.930;6.918;2024-01-25T21:39:48;101936.44;;;10.95;100.00
11643;BME280;5877;50.930;6.918;2024-01-25T21:49:32;101932.06;;;11.17;100.00
11643;BME280;5877;50.930;6.918;2024-01-25T21:59:16;101875.75;;;10.75;100.00
11643;BME280;5877;50.930;6.918;2024-01-25T22:08:58;101934.50;;;11.18;100.00
11643;BME280;5877;50.930;6.918;2024-01-25T22:18:40;101901.91;;;10.98;100.00
11643;BME280;5877;50.930;6.918;2024-01-25T22:28:22;101923.09;;;11.11;100.00
11643;BME280;5877;50.930;6.918;2024-01-25T22:38:06;101915.97;;;10.90;100.00
11643;BME280;5877;50.930;6.918;2024-01-25T22:47:49;101909.59;;;11.14;100.00
11643;BME280;5877;50.930;6.918;2024-01-25T22:57:31;101769.78;;;10.32;100.00
11643;BME280;5877;50.930;6.918;2024-01-25T23:07:14;101850.75;;;10.79;100.00
11643;BME280;5877;50.930;6.918;2024-01-25T23:16:56;101858.63;;;10.94;100.00
11643;BME280;5877;50.930;6.918;2024-01-25T23:26:39;101884.13;;;11.15;100.00
11643;BME280;5877;50.930;6.918;2024-01-25T23:36:22;101879.22;;;11.26;100.00
11643;BME280;5877;50.930;6.918;2024-01-25T23:46:06;101853.72;;;10.91;100.00
11643;BME280;5877;50.930;6.918;2024-01-25T23:55:50;101852.53;;;11.08;100.00
